sensor_id;sensor_type;location;lat;lon;timestamp;pressure;altitude;pressure_sealevel;temperature;humidity
69842;BME280;57138;51.326;-0.068;2024-03-02T00:01:10;97323.75;;;2.68;100.00
69842;BME280;57138;51.326;-0.068;2024-03-02T00:03:39;97311.84;;;2.59;100.00
69842;BME280;57138;51.326;-0.068;2024-03-02T00:06:06;97315.25;;;2.66;100.00
69842;BME280;57138;51.326;-0.068;2024-03-02T00:08:32;97312.25;;;2.56;100.00
69842;BME280;57138;51.326;-0.068;2024-03-02T00:10:59;97318.94;;;2.58;100.00
69842;BME280;57138;51.326;-0.068;2024-03-02T00:13:25;97318.34;;;2.56;100.00
69842;BME280;57138;51.326;-0.068;2024-03-02T00:15:55;97332.72;;;2.67;100.00
69842;BME280;57138;51.326;-0.068;2024-03-02T00:18:30;97337.94;;;2.74;100.00
69842;BME280;57138;51.326;-0.068;2024-03-02T00:20:56;97340.34;;;2.82;100.00
69842;BME280;57138;51.326;-0.068;2024-03-02T00:23:23;97319.94;;;2.64;100.00
69842;BME280;57138;51.326;-0.068;2024-03-02T00:25:51;97334.69;;;2.78;100.00
69842;BME280;57138;51.326;-0.068;2024-03-02T00:28:22;97320.69;;;2.71;100.00
69842;BME280;57138;51.326;-0.068;2024-03-02T00:33:20;97310.78;;;2.73;100.00
69842;BME280;57138;51.326;-0.068;2024-03-02T00:35:50;97323.72;;;2.81;100.00
69842;BME280;57138;51.326;-0.068;2024-03-02T00:38:15;97324.34;;;2.77;100.00
69842;BME280;57138;51.326;-0.068;2024-03-02T00:40:44;97324.72;;;2.80;100.00
69842;BME280;57138;51.326;-0.068;2024-03-02T00:45:58;97326.09;;;2.90;100.00
69842;BME280;57138;51.326;-0.068;2024-03-02T00:48:24;97329.38;;;2.92;100.00
69842;BME280;57138;51.326;-0.068;2024-03-02T00:50:52;97330.41;;;2.84;100.00
69842;BME280;57138;51.326;-0.068;2024-03-02T00:53:23;97314.97;;;2.87;100.00
69842;BME280;57138;51.326;-0.068;2024-03-02T00:55:52;97318.81;;;2.92;100.00
69842;BME280;57138;51.326;-0.068;2024-03-02T00:58:17;97311.84;;;2.97;100.00
69842;BME280;57138;51.326;-0.068;2024-03-02T01:00:43;97313.06;;;3.01;100.00
69842;BME280;57138;51.326;-0.068;2024-03-02T01:03:08;97303.09;;;3.03;100.00
69842;BME280;57138;51.326;-0.068;2024-03-02T01:05:36;97287.16;;;2.85;100.00
69842;BME280;57138;51.326;-0.068;2024-03-02T01:08:01;97303.25;;;3.15;100.00
69842;BME280;57138;51.326;-0.068;2024-03-02T01:10:26;97301.50;;;3.02;100.00
69842;BME280;57138;51.326;-0.068;2024-03-02T01:12:52;97301.19;;;3.17;100.00
69842;BME280;57138;51.326;-0.068;2024-03-02T01:15:18;97300.00;;;3.13;100.00
69842;BME280;57138;51.326;-0.068;2024-03-02T01:17:43;97288.72;;;2.93;100.00
69842;BME280;57138;51.326;-0.068;2024-03-02T01:20:09;97286.28;;;2.98;100.00
69842;BME280;57138;51.326;-0.068;2024-03-02T01:22:35;97295.63;;;2.94;100.00
69842;BME280;57138;51.326;-0.068;2024-03-02T01:25:01;97299.22;;;3.06;100.00
69842;BME280;57138;51.326;-0.068;2024-03-02T01:27:26;97291.44;;;3.18;100.00
69842;BME280;57138;51.326;-0.068;2024-03-02T01:29:52;97294.84;;;3.25;100.00
69842;BME280;57138;51.326;-0.068;2024-03-02T01:32:17;97278.50;;;3.10;100.00
69842;BME280;57138;51.326;-0.068;2024-03-02T01:34:43;97291.06;;;3.14;100.00
69842;BME280;57138;51.326;-0.068;2024-03-02T01:37:08;97299.13;;;3.19;100.00
69842;BME280;57138;51.326;-0.068;2024-03-02T01:39:35;97299.09;;;3.26;100.00
69842;BME280;57138;51.326;-0.068;2024-03-02T01:42:01;97300.91;;;3.26;100.00
69842;BME280;57138;51.326;-0.068;2024-03-02T01:44:26;97298.34;;;3.19;100.00
69842;BME280;57138;51.326;-0.068;2024-03-02T01:46:52;97300.91;;;3.26;100.00
69842;BME280;57138;51.326;-0.068;2024-03-02T01:49:17;97287.06;;;3.30;100.00
69842;BME280;57138;51.326;-0.068;2024-03-02T01:51:44;97289.72;;;3.30;100.00
69842;BME280;57138;51.326;-0.068;2024-03-02T01:54:09;97284.72;;;3.47;100.00
69842;BME280;57138;51.326;-0.068;2024-03-02T01:56:35;97283.34;;;3.45;100.00
69842;BME280;57138;51.326;-0.068;2024-03-02T01:59:01;97276.22;;;3.45;100.00
69842;BME280;57138;51.326;-0.068;2024-03-02T02:01:26;97287.00;;;3.44;100.00
69842;BME280;57138;51.326;-0.068;2024-03-02T02:03:52;97273.69;;;3.57;100.00
69842;BME280;57138;51.326;-0.068;2024-03-02T02:06:18;97279.22;;;3.49;100.00
69842;BME280;57138;51.326;-0.068;2024-03-02T02:08:43;97269.84;;;3.53;100.00
69842;BME280;57138;51.326;-0.068;2024-03-02T02:11:08;97263.59;;;3.47;100.00
69842;BME280;57138;51.326;-0.068;2024-03-02T02:13:34;97271.50;;;3.47;100.00
69842;BME280;57138;51.326;-0.068;2024-03-02T02:16:07;97267.91;;;3.67;100.00
69842;BME280;57138;51.326;-0.068;2024-03-02T02:18:32;97268.72;;;3.67;100.00
69842;BME280;57138;51.326;-0.068;2024-03-02T02:20:58;97271.47;;;3.54;100.00
69842;BME280;57138;51.326;-0.068;2024-03-02T02:23:23;97270.22;;;3.56;100.00
69842;BME280;57138;51.326;-0.068;2024-03-02T02:25:49;97266.72;;;3.63;100.00
69842;BME280;57138;51.326;-0.068;2024-03-02T02:28:14;97259.56;;;3.70;100.00
69842;BME280;57138;51.326;-0.068;2024-03-02T02:30:39;97260.25;;;3.84;100.00
69842;BME280;57138;51.326;-0.068;2024-03-02T02:33:05;97251.19;;;3.73;100.00
69842;BME280;57138;51.326;-0.068;2024-03-02T02:35:30;97279.28;;;3.67;100.00
69842;BME280;57138;51.326;-0.068;2024-03-02T02:37:56;97257.81;;;3.82;100.00
69842;BME280;57138;51.326;-0.068;2024-03-02T02:40:23;97264.47;;;3.85;100.00
69842;BME280;57138;51.326;-0.068;2024-03-02T02:42:48;97247.47;;;3.81;100.00
69842;BME280;57138;51.326;-0.068;2024-03-02T02:45:14;97263.25;;;3.87;100.00
69842;BME280;57138;51.326;-0.068;2024-03-02T02:47:40;97253.84;;;3.73;100.00
69842;BME280;57138;51.326;-0.068;2024-03-02T02:50:09;97260.91;;;3.79;100.00
69842;BME280;57138;51.326;-0.068;2024-03-02T02:52:37;97254.28;;;3.70;100.00
69842;BME280;57138;51.326;-0.068;2024-03-02T02:55:10;97235.78;;;3.70;100.00
69842;BME280;57138;51.326;-0.068;2024-03-02T02:57:37;97231.44;;;3.75;100.00
69842;BME280;57138;51.326;-0.068;2024-03-02T03:00:09;97232.41;;;3.81;100.00
69842;BME280;57138;51.326;-0.068;2024-03-02T03:02:41;97245.75;;;3.86;100.00
69842;BME280;57138;51.326;-0.068;2024-03-02T03:05:11;97233.88;;;3.95;100.00
69842;BME280;57138;51.326;-0.068;2024-03-02T03:07:37;97242.53;;;3.84;100.00
69842;BME280;57138;51.326;-0.068;2024-03-02T03:10:05;97243.41;;;3.78;100.00
69842;BME280;57138;51.326;-0.068;2024-03-02T03:12:32;97234.91;;;3.76;100.00
69842;BME280;57138;51.326;-0.068;2024-03-02T03:14:58;97237.31;;;3.77;100.00
69842;BME280;57138;51.326;-0.068;2024-03-02T03:17:23;97231.16;;;3.84;100.00
69842;BME280;57138;51.326;-0.068;2024-03-02T03:19:49;97231.31;;;3.89;100.00
69842;BME280;57138;51.326;-0.068;2024-03-02T03:22:15;97206.56;;;3.83;100.00
69842;BME280;57138;51.326;-0.068;2024-03-02T03:24:41;97214.03;;;3.86;100.00
69842;BME280;57138;51.326;-0.068;2024-03-02T03:27:07;97224.94;;;3.96;100.00
69842;BME280;57138;51.326;-0.068;2024-03-02T03:29:32;97222.16;;;3.91;100.00
69842;BME280;57138;51.326;-0.068;2024-03-02T03:31:58;97216.09;;;3.84;100.00
69842;BME280;57138;51.326;-0.068;2024-03-02T03:34:23;97212.50;;;3.78;100.00
69842;BME280;57138;51.326;-0.068;2024-03-02T03:36:48;97211.69;;;3.78;100.00
69842;BME280;57138;51.326;-0.068;2024-03-02T03:39:14;97197.75;;;3.89;100.00
69842;BME280;57138;51.326;-0.068;2024-03-02T03:41:42;97206.94;;;3.87;100.00
69842;BME280;57138;51.326;-0.068;2024-03-02T03:44:08;97196.63;;;3.78;100.00
69842;BME280;57138;51.326;-0.068;2024-03-02T03:46:33;97191.75;;;3.82;100.00
69842;BME280;57138;51.326;-0.068;2024-03-02T03:48:58;97199.81;;;3.87;100.00
69842;BME280;57138;51.326;-0.068;2024-03-02T03:51:24;97187.84;;;3.85;100.00
69842;BME280;57138;51.326;-0.068;2024-03-02T03:53:49;97197.09;;;3.94;100.00
69842;BME280;57138;51.326;-0.068;2024-03-02T03:56:15;97179.84;;;3.91;100.00
69842;BME280;57138;51.326;-0.068;2024-03-02T03:58:40;97196.06;;;3.95;100.00
69842;BME280;57138;51.326;-0.068;2024-03-02T04:01:05;97188.22;;;3.88;100.00
69842;BME280;57138;51.326;-0.068;2024-03-02T04:03:31;97187.63;;;3.86;100.00
69842;BME280;57138;51.326;-0.068;2024-03-02T04:05:56;97207.88;;;3.92;100.00
69842;BME280;57138;51.326;-0.068;2024-03-02T04:08:22;97181.44;;;3.92;100.00
69842;BME280;57138;51.326;-0.068;2024-03-02T04:10:47;97187.91;;;3.96;100.00
69842;BME280;57138;51.326;-0.068;2024-03-02T04:13:12;97190.88;;;4.07;100.00
69842;BME280;57138;51.326;-0.068;2024-03-02T04:15:38;97190.69;;;4.02;100.00
69842;BME280;57138;51.326;-0.068;2024-03-02T04:18:04;97183.38;;;4.04;100.00
69842;BME280;57138;51.326;-0.068;2024-03-02T04:20:29;97173.59;;;4.04;100.00
69842;BME280;57138;51.326;-0.068;2024-03-02T04:22:55;97183.06;;;4.12;100.00
69842;BME280;57138;51.326;-0.068;2024-03-02T04:25:20;97181.16;;;4.19;100.00
69842;BME280;57138;51.326;-0.068;2024-03-02T04:27:46;97177.47;;;4.20;100.00
69842;BME280;57138;51.326;-0.068;2024-03-02T04:30:12;97184.53;;;4.08;100.00
69842;BME280;57138;51.326;-0.068;2024-03-02T04:32:38;97163.38;;;4.08;100.00
69842;BME280;57138;51.326;-0.068;2024-03-02T04:35:04;97159.72;;;4.09;100.00
69842;BME280;57138;51.326;-0.068;2024-03-02T04:37:31;97169.09;;;4.05;100.00
69842;BME280;57138;51.326;-0.068;2024-03-02T04:39:57;97188.94;;;4.14;100.00
69842;BME280;57138;51.326;-0.068;2024-03-02T04:42:22;97184.38;;;4.21;100.00
69842;BME280;57138;51.326;-0.068;2024-03-02T04:44:48;97166.31;;;4.18;100.00
69842;BME280;57138;51.326;-0.068;2024-03-02T04:47:13;97172.84;;;4.16;100.00
69842;BME280;57138;51.326;-0.068;2024-03-02T04:49:39;97180.03;;;4.27;100.00
69842;BME280;57138;51.326;-0.068;2024-03-02T04:52:04;97176.31;;;4.16;100.00
69842;BME280;57138;51.326;-0.068;2024-03-02T04:54:30;97174.69;;;4.15;100.00
69842;BME280;57138;51.326;-0.068;2024-03-02T04:56:55;97167.44;;;4.10;100.00
69842;BME280;57138;51.326;-0.068;2024-03-02T04:59:21;97166.97;;;4.13;100.00
69842;BME280;57138;51.326;-0.068;2024-03-02T05:01:46;97172.91;;;4.27;100.00
69842;BME280;57138;51.326;-0.068;2024-03-02T05:04:12;97174.97;;;4.25;100.00
69842;BME280;57138;51.326;-0.068;2024-03-02T05:06:39;97165.88;;;4.21;100.00
69842;BME280;57138;51.326;-0.068;2024-03-02T05:09:05;97172.75;;;4.22;100.00
69842;BME280;57138;51.326;-0.068;2024-03-02T05:11:31;97178.34;;;4.14;100.00
69842;BME280;57138;51.326;-0.068;2024-03-02T05:14:15;97166.00;;;4.26;100.00
69842;BME280;57138;51.326;-0.068;2024-03-02T05:16:41;97169.59;;;4.32;100.00
69842;BME280;57138;51.326;-0.068;2024-03-02T05:19:09;97156.88;;;4.22;100.00
69842;BME280;57138;51.326;-0.068;2024-03-02T05:21:34;97154.25;;;4.22;100.00
69842;BME280;57138;51.326;-0.068;2024-03-02T05:24:00;97145.28;;;4.23;100.00
69842;BME280;57138;51.326;-0.068;2024-03-02T05:26:25;97142.97;;;4.15;100.00
69842;BME280;57138;51.326;-0.068;2024-03-02T05:28:51;97153.44;;;4.22;100.00
69842;BME280;57138;51.326;-0.068;2024-03-02T05:31:16;97142.06;;;4.21;100.00
69842;BME280;57138;51.326;-0.068;2024-03-02T05:33:42;97130.91;;;4.19;100.00
69842;BME280;57138;51.326;-0.068;2024-03-02T05:36:08;97130.59;;;4.27;100.00
69842;BME280;57138;51.326;-0.068;2024-03-02T05:38:37;97137.47;;;4.28;100.00
69842;BME280;57138;51.326;-0.068;2024-03-02T05:41:03;97133.91;;;4.23;100.00
69842;BME280;57138;51.326;-0.068;2024-03-02T05:43:28;97129.44;;;4.23;100.00
69842;BME280;57138;51.326;-0.068;2024-03-02T05:45:54;97131.94;;;4.18;100.00
69842;BME280;57138;51.326;-0.068;2024-03-02T05:48:19;97127.66;;;4.17;100.00
69842;BME280;57138;51.326;-0.068;2024-03-02T05:50:45;97127.34;;;4.25;100.00
69842;BME280;57138;51.326;-0.068;2024-03-02T05:53:10;97125.56;;;4.38;100.00
69842;BME280;57138;51.326;-0.068;2024-03-02T05:55:36;97122.06;;;4.25;100.00
69842;BME280;57138;51.326;-0.068;2024-03-02T05:58:01;97109.44;;;4.27;100.00
69842;BME280;57138;51.326;-0.068;2024-03-02T06:00:45;97110.59;;;4.31;100.00
69842;BME280;57138;51.326;-0.068;2024-03-02T06:03:10;97117.19;;;4.41;100.00
69842;BME280;57138;51.326;-0.068;2024-03-02T06:05:36;97117.50;;;4.32;100.00
69842;BME280;57138;51.326;-0.068;2024-03-02T06:08:01;97110.63;;;4.43;100.00
69842;BME280;57138;51.326;-0.068;2024-03-02T06:10:27;97111.66;;;4.42;100.00
69842;BME280;57138;51.326;-0.068;2024-03-02T06:12:52;97115.69;;;4.45;100.00
69842;BME280;57138;51.326;-0.068;2024-03-02T06:15:17;97102.34;;;4.40;100.00
69842;BME280;57138;51.326;-0.068;2024-03-02T06:17:43;97090.50;;;4.42;100.00
69842;BME280;57138;51.326;-0.068;2024-03-02T06:20:09;97092.38;;;4.54;100.00
69842;BME280;57138;51.326;-0.068;2024-03-02T06:22:35;97115.31;;;4.60;100.00
69842;BME280;57138;51.326;-0.068;2024-03-02T06:25:00;97108.34;;;4.47;100.00
69842;BME280;57138;51.326;-0.068;2024-03-02T06:27:26;97107.78;;;4.45;100.00
69842;BME280;57138;51.326;-0.068;2024-03-02T06:29:51;97101.81;;;4.49;100.00
69842;BME280;57138;51.326;-0.068;2024-03-02T06:32:16;97122.41;;;4.59;100.00
69842;BME280;57138;51.326;-0.068;2024-03-02T06:34:42;97102.28;;;4.58;100.00
69842;BME280;57138;51.326;-0.068;2024-03-02T06:37:07;97090.72;;;4.41;100.00
69842;BME280;57138;51.326;-0.068;2024-03-02T06:39:33;97113.06;;;4.45;100.00
69842;BME280;57138;51.326;-0.068;2024-03-02T06:42:00;97104.41;;;4.38;100.00
69842;BME280;57138;51.326;-0.068;2024-03-02T06:44:25;97122.34;;;4.36;100.00
69842;BME280;57138;51.326;-0.068;2024-03-02T06:46:51;97097.81;;;4.28;100.00
69842;BME280;57138;51.326;-0.068;2024-03-02T06:49:16;97104.81;;;4.23;100.00
69842;BME280;57138;51.326;-0.068;2024-03-02T06:51:44;97093.69;;;4.21;100.00
69842;BME280;57138;51.326;-0.068;2024-03-02T06:54:09;97104.25;;;4.21;100.00
69842;BME280;57138;51.326;-0.068;2024-03-02T06:56:34;97100.47;;;4.28;100.00
69842;BME280;57138;51.326;-0.068;2024-03-02T06:59:00;97120.28;;;4.38;100.00
69842;BME280;57138;51.326;-0.068;2024-03-02T07:01:25;97106.94;;;4.32;100.00
69842;BME280;57138;51.326;-0.068;2024-03-02T07:03:51;97103.94;;;4.41;100.00
69842;BME280;57138;51.326;-0.068;2024-03-02T07:06:17;97107.66;;;4.40;100.00
69842;BME280;57138;51.326;-0.068;2024-03-02T07:08:43;97128.84;;;4.52;100.00
69842;BME280;57138;51.326;-0.068;2024-03-02T07:11:08;97136.47;;;4.60;100.00
69842;BME280;57138;51.326;-0.068;2024-03-02T07:13:34;97130.13;;;4.61;100.00
69842;BME280;57138;51.326;-0.068;2024-03-02T07:16:00;97129.66;;;4.64;100.00
69842;BME280;57138;51.326;-0.068;2024-03-02T07:18:31;97121.16;;;4.62;100.00
69842;BME280;57138;51.326;-0.068;2024-03-02T07:20:59;97129.59;;;4.71;100.00
69842;BME280;57138;51.326;-0.068;2024-03-02T07:23:26;97126.91;;;4.59;100.00
69842;BME280;57138;51.326;-0.068;2024-03-02T07:25:53;97136.25;;;4.61;100.00
69842;BME280;57138;51.326;-0.068;2024-03-02T07:28:22;97136.25;;;4.61;100.00
69842;BME280;57138;51.326;-0.068;2024-03-02T07:30:58;97138.28;;;4.59;100.00
69842;BME280;57138;51.326;-0.068;2024-03-02T07:33:24;97145.66;;;4.57;100.00
69842;BME280;57138;51.326;-0.068;2024-03-02T07:35:49;97152.56;;;4.58;100.00
69842;BME280;57138;51.326;-0.068;2024-03-02T07:38:15;97149.59;;;4.66;100.00
69842;BME280;57138;51.326;-0.068;2024-03-02T07:40:40;97143.72;;;4.64;100.00
69842;BME280;57138;51.326;-0.068;2024-03-02T07:43:06;97138.44;;;4.64;100.00
69842;BME280;57138;51.326;-0.068;2024-03-02T07:45:31;97146.72;;;4.68;100.00
69842;BME280;57138;51.326;-0.068;2024-03-02T07:47:56;97152.25;;;4.78;100.00
69842;BME280;57138;51.326;-0.068;2024-03-02T07:50:22;97152.63;;;4.82;100.00
69842;BME280;57138;51.326;-0.068;2024-03-02T07:52:48;97150.09;;;4.87;100.00
69842;BME280;57138;51.326;-0.068;2024-03-02T07:55:13;97165.19;;;4.86;100.00
69842;BME280;57138;51.326;-0.068;2024-03-02T07:57:38;97152.63;;;4.82;100.00
69842;BME280;57138;51.326;-0.068;2024-03-02T08:00:06;97146.66;;;4.86;100.00
69842;BME280;57138;51.326;-0.068;2024-03-02T08:02:31;97153.56;;;4.99;100.00
69842;BME280;57138;51.326;-0.068;2024-03-02T08:04:57;97155.88;;;5.08;100.00
69842;BME280;57138;51.326;-0.068;2024-03-02T08:07:22;97140.22;;;4.94;100.00
69842;BME280;57138;51.326;-0.068;2024-03-02T08:09:48;97166.94;;;5.04;100.00
69842;BME280;57138;51.326;-0.068;2024-03-02T08:12:13;97166.81;;;4.99;100.00
69842;BME280;57138;51.326;-0.068;2024-03-02T08:14:38;97170.53;;;5.10;100.00
69842;BME280;57138;51.326;-0.068;2024-03-02T08:17:04;97168.44;;;5.12;100.00
69842;BME280;57138;51.326;-0.068;2024-03-02T08:19:35;97177.91;;;5.08;100.00
69842;BME280;57138;51.326;-0.068;2024-03-02T08:22:00;97204.72;;;5.12;100.00
69842;BME280;57138;51.326;-0.068;2024-03-02T08:24:26;97184.78;;;4.97;100.00
69842;BME280;57138;51.326;-0.068;2024-03-02T08:26:51;97175.66;;;4.93;100.00
69842;BME280;57138;51.326;-0.068;2024-03-02T08:29:17;97177.38;;;4.88;100.00
69842;BME280;57138;51.326;-0.068;2024-03-02T08:31:42;97172.00;;;4.94;100.00
69842;BME280;57138;51.326;-0.068;2024-03-02T08:34:07;97165.22;;;5.10;100.00
69842;BME280;57138;51.326;-0.068;2024-03-02T08:36:34;97163.13;;;5.12;100.00
69842;BME280;57138;51.326;-0.068;2024-03-02T08:38:59;97172.81;;;5.18;100.00
69842;BME280;57138;51.326;-0.068;2024-03-02T08:41:25;97155.09;;;5.07;100.00
69842;BME280;57138;51.326;-0.068;2024-03-02T08:43:50;97164.88;;;5.07;100.00
69842;BME280;57138;51.326;-0.068;2024-03-02T08:46:16;97169.00;;;5.02;100.00
69842;BME280;57138;51.326;-0.068;2024-03-02T08:48:41;97178.44;;;4.98;100.00
69842;BME280;57138;51.326;-0.068;2024-03-02T08:51:07;97190.66;;;4.99;100.00
69842;BME280;57138;51.326;-0.068;2024-03-02T08:53:35;97206.06;;;5.02;100.00
69842;BME280;57138;51.326;-0.068;2024-03-02T08:56:01;97189.03;;;4.98;100.00
69842;BME280;57138;51.326;-0.068;2024-03-02T08:58:26;97188.34;;;4.91;100.00
69842;BME280;57138;51.326;-0.068;2024-03-02T09:00:52;97190.06;;;4.97;100.00
69842;BME280;57138;51.326;-0.068;2024-03-02T09:03:17;97197.56;;;5.00;100.00
69842;BME280;57138;51.326;-0.068;2024-03-02T09:05:43;97204.91;;;4.98;100.00
69842;BME280;57138;51.326;-0.068;2024-03-02T09:08:08;97190.38;;;4.89;100.00
69842;BME280;57138;51.326;-0.068;2024-03-02T09:10:34;97196.66;;;5.07;100.00
69842;BME280;57138;51.326;-0.068;2024-03-02T09:13:00;97194.69;;;5.02;100.00
69842;BME280;57138;51.326;-0.068;2024-03-02T09:15:25;97203.81;;;5.18;100.00
69842;BME280;57138;51.326;-0.068;2024-03-02T09:17:51;97203.91;;;5.11;100.00
69842;BME280;57138;51.326;-0.068;2024-03-02T09:20:16;97202.06;;;5.12;100.00
69842;BME280;57138;51.326;-0.068;2024-03-02T09:22:42;97209.56;;;5.15;100.00
69842;BME280;57138;51.326;-0.068;2024-03-02T09:25:07;97203.81;;;5.18;100.00
69842;BME280;57138;51.326;-0.068;2024-03-02T09:27:36;97223.19;;;5.30;100.00
69842;BME280;57138;51.326;-0.068;2024-03-02T09:30:04;97202.66;;;5.37;100.00
69842;BME280;57138;51.326;-0.068;2024-03-02T09:32:30;97227.09;;;5.39;100.00
69842;BME280;57138;51.326;-0.068;2024-03-02T09:34:56;97201.75;;;5.44;100.00
69842;BME280;57138;51.326;-0.068;2024-03-02T09:37:21;97207.06;;;5.44;100.00
69842;BME280;57138;51.326;-0.068;2024-03-02T09:39:47;97205.22;;;5.56;100.00
69842;BME280;57138;51.326;-0.068;2024-03-02T09:42:13;97217.09;;;5.65;100.00
69842;BME280;57138;51.326;-0.068;2024-03-02T09:44:39;97205.47;;;5.66;100.00
69842;BME280;57138;51.326;-0.068;2024-03-02T09:47:06;97219.41;;;5.73;100.00
69842;BME280;57138;51.326;-0.068;2024-03-02T09:49:32;97213.50;;;5.71;100.00
69842;BME280;57138;51.326;-0.068;2024-03-02T09:51:57;97210.28;;;5.69;100.00
69842;BME280;57138;51.326;-0.068;2024-03-02T09:54:23;97200.38;;;5.41;100.00
69842;BME280;57138;51.326;-0.068;2024-03-02T09:56:50;97202.00;;;5.54;100.00
69842;BME280;57138;51.326;-0.068;2024-03-02T09:59:16;97216.28;;;5.65;100.00
69842;BME280;57138;51.326;-0.068;2024-03-02T10:01:58;97209.38;;;5.75;100.00
69842;BME280;57138;51.326;-0.068;2024-03-02T10:04:27;97218.00;;;5.94;100.00
69842;BME280;57138;51.326;-0.068;2024-03-02T10:07:09;97233.91;;;5.83;100.00
69842;BME280;57138;51.326;-0.068;2024-03-02T10:09:36;97260.78;;;5.74;100.00
69842;BME280;57138;51.326;-0.068;2024-03-02T10:12:06;97270.25;;;5.70;100.00
69842;BME280;57138;51.326;-0.068;2024-03-02T10:14:31;97266.84;;;5.51;100.00
69842;BME280;57138;51.326;-0.068;2024-03-02T10:17:02;97256.47;;;5.38;100.00
69842;BME280;57138;51.326;-0.068;2024-03-02T10:19:28;97268.31;;;5.24;100.00
69842;BME280;57138;51.326;-0.068;2024-03-02T10:21:58;97274.75;;;5.16;100.00
69842;BME280;57138;51.326;-0.068;2024-03-02T10:24:24;97275.91;;;5.20;100.00
69842;BME280;57138;51.326;-0.068;2024-03-02T10:26:50;97280.50;;;5.13;100.00
69842;BME280;57138;51.326;-0.068;2024-03-02T10:29:16;97287.00;;;4.98;100.00
69842;BME280;57138;51.326;-0.068;2024-03-02T10:31:43;97283.34;;;4.81;100.00
69842;BME280;57138;51.326;-0.068;2024-03-02T10:34:10;97293.06;;;4.87;100.00
69842;BME280;57138;51.326;-0.068;2024-03-02T10:36:37;97289.53;;;4.75;100.00
69842;BME280;57138;51.326;-0.068;2024-03-02T10:39:04;97296.59;;;4.81;100.00
69842;BME280;57138;51.326;-0.068;2024-03-02T10:41:35;97289.00;;;4.84;100.00
69842;BME280;57138;51.326;-0.068;2024-03-02T10:44:02;97281.19;;;4.59;100.00
69842;BME280;57138;51.326;-0.068;2024-03-02T10:46:30;97298.47;;;4.62;100.00
69842;BME280;57138;51.326;-0.068;2024-03-02T10:48:59;97297.13;;;4.71;100.00
69842;BME280;57138;51.326;-0.068;2024-03-02T10:51:26;97310.59;;;4.70;100.00
69842;BME280;57138;51.326;-0.068;2024-03-02T10:53:54;97321.16;;;4.70;100.00
69842;BME280;57138;51.326;-0.068;2024-03-02T10:56:33;97310.72;;;4.75;100.00
69842;BME280;57138;51.326;-0.068;2024-03-02T11:01:32;97312.25;;;4.82;100.00
69842;BME280;57138;51.326;-0.068;2024-03-02T11:03:59;97310.19;;;4.84;100.00
69842;BME280;57138;51.326;-0.068;2024-03-02T11:06:28;97317.19;;;4.79;100.00
69842;BME280;57138;51.326;-0.068;2024-03-02T11:08:55;97304.72;;;4.67;100.00
69842;BME280;57138;51.326;-0.068;2024-03-02T11:11:29;97327.50;;;4.68;100.00
69842;BME280;57138;51.326;-0.068;2024-03-02T11:13:57;97316.19;;;4.61;100.00
69842;BME280;57138;51.326;-0.068;2024-03-02T11:16:35;97338.25;;;4.55;100.00
69842;BME280;57138;51.326;-0.068;2024-03-02T11:19:05;97343.38;;;4.50;100.00
69842;BME280;57138;51.326;-0.068;2024-03-02T11:21:36;97348.22;;;4.53;100.00
69842;BME280;57138;51.326;-0.068;2024-03-02T11:26:46;97331.19;;;4.67;100.00
69842;BME280;57138;51.326;-0.068;2024-03-02T11:32:04;97321.75;;;4.72;100.00
69842;BME280;57138;51.326;-0.068;2024-03-02T11:34:34;97327.03;;;4.72;100.00
69842;BME280;57138;51.326;-0.068;2024-03-02T11:37:03;97323.16;;;4.74;100.00
69842;BME280;57138;51.326;-0.068;2024-03-02T11:39:30;97334.06;;;4.96;100.00
69842;BME280;57138;51.326;-0.068;2024-03-02T11:41:58;97313.13;;;4.76;100.00
69842;BME280;57138;51.326;-0.068;2024-03-02T11:44:26;97328.59;;;4.79;100.00
69842;BME280;57138;51.326;-0.068;2024-03-02T11:47:01;97335.41;;;4.87;100.00
69842;BME280;57138;51.326;-0.068;2024-03-02T11:49:44;97343.88;;;4.96;100.00
69842;BME280;57138;51.326;-0.068;2024-03-02T11:52:14;97353.63;;;4.95;100.00
69842;BME280;57138;51.326;-0.068;2024-03-02T11:54:42;97341.44;;;4.94;100.00
69842;BME280;57138;51.326;-0.068;2024-03-02T11:57:18;97341.25;;;5.08;100.00
69842;BME280;57138;51.326;-0.068;2024-03-02T11:59:45;97340.28;;;5.20;100.00
69842;BME280;57138;51.326;-0.068;2024-03-02T12:02:18;97350.22;;;5.25;100.00
69842;BME280;57138;51.326;-0.068;2024-03-02T12:04:44;97329.47;;;5.22;100.00
69842;BME280;57138;51.326;-0.068;2024-03-02T12:07:10;97327.97;;;5.26;100.00
69842;BME280;57138;51.326;-0.068;2024-03-02T12:09:36;97335.13;;;5.37;100.00
69842;BME280;57138;51.326;-0.068;2024-03-02T12:12:07;97331.13;;;5.35;100.00
69842;BME280;57138;51.326;-0.068;2024-03-02T12:14:34;97330.28;;;5.34;100.00
69842;BME280;57138;51.326;-0.068;2024-03-02T12:17:00;97328.69;;;5.33;100.00
69842;BME280;57138;51.326;-0.068;2024-03-02T12:19:27;97332.38;;;5.32;100.00
69842;BME280;57138;51.326;-0.068;2024-03-02T12:21:56;97328.25;;;5.48;100.00
69842;BME280;57138;51.326;-0.068;2024-03-02T12:24:22;97321.13;;;5.49;100.00
69842;BME280;57138;51.326;-0.068;2024-03-02T12:26:50;97326.22;;;5.62;100.00
69842;BME280;57138;51.326;-0.068;2024-03-02T12:29:16;97317.25;;;5.63;100.00
69842;BME280;57138;51.326;-0.068;2024-03-02T12:31:42;97334.19;;;5.74;100.00
69842;BME280;57138;51.326;-0.068;2024-03-02T12:34:13;97323.03;;;5.84;100.00
69842;BME280;57138;51.326;-0.068;2024-03-02T12:36:39;97342.63;;;5.83;100.00
69842;BME280;57138;51.326;-0.068;2024-03-02T12:39:07;97340.78;;;5.83;100.00
69842;BME280;57138;51.326;-0.068;2024-03-02T12:41:38;97344.34;;;5.89;100.00
69842;BME280;57138;51.326;-0.068;2024-03-02T12:44:06;97347.59;;;5.91;100.00
69842;BME280;57138;51.326;-0.068;2024-03-02T12:46:33;97363.97;;;5.88;100.00
69842;BME280;57138;51.326;-0.068;2024-03-02T12:49:07;97356.47;;;5.85;100.00
69842;BME280;57138;51.326;-0.068;2024-03-02T12:51:35;97356.69;;;5.95;100.00
69842;BME280;57138;51.326;-0.068;2024-03-02T12:54:01;97358.06;;;5.86;100.00
69842;BME280;57138;51.326;-0.068;2024-03-02T12:56:27;97354.28;;;5.82;100.00
69842;BME280;57138;51.326;-0.068;2024-03-02T12:58:56;97359.22;;;5.90;100.00
69842;BME280;57138;51.326;-0.068;2024-03-02T13:01:21;97364.09;;;5.93;100.00